Terminal Aerodrome Forecast
Issued by NWS Sioux Falls, SD

Home | Current Version | Previous Version | Graphics & Text | Print | Product List | Glossary On
Versions: 1 2 3 4 5 6 7 8 9 10 11 12 13 14 15 16 17 18 19 20 21 22 23 24 25
000
FTUS43 KFSD 282258 AAD
TAFFSD
TAF AMD
KFSD 282258Z 2823/2918 11008KT P6SM SCT006 OVC018
      TEMPO 2823/2901 BKN006
     FM290100 VRB05KT P6SM SCT030 BKN045
     FM290900 VRB05KT 2SM BR BKN005
     FM291500 32005KT P6SM OVC015=

USA.gov is the U.S. government's official web portal to all federal, state and local government web resources and services.